sensor_id;sensor_type;location;lat;lon;timestamp;P1;durP1;ratioP1;P2;durP2;ratioP2
41177;SDS011;26912;54.292;18.574;2022-10-30T00:01:18;3.50;;;0.73;;
41177;SDS011;26912;54.292;18.574;2022-10-30T00:03:45;1.02;;;0.30;;
41177;SDS011;26912;54.292;18.574;2022-10-30T00:06:11;1.65;;;0.40;;
41177;SDS011;26912;54.292;18.574;2022-10-30T00:08:38;0.10;;;0.10;;
41177;SDS011;26912;54.292;18.574;2022-10-30T00:11:05;1.52;;;0.88;;
41177;SDS011;26912;54.292;18.574;2022-10-30T00:13:36;0.32;;;0.30;;
41177;SDS011;26912;54.292;18.574;2022-10-30T00:16:04;1.50;;;0.38;;
41177;SDS011;26912;54.292;18.574;2022-10-30T00:18:36;0.52;;;0.40;;
41177;SDS011;26912;54.292;18.574;2022-10-30T00:21:05;0.60;;;0.40;;
41177;SDS011;26912;54.292;18.574;2022-10-30T00:23:33;0.65;;;0.52;;
41177;SDS011;26912;54.292;18.574;2022-10-30T00:26:04;0.30;;;0.30;;
41177;SDS011;26912;54.292;18.574;2022-10-30T00:28:32;1.55;;;0.60;;
41177;SDS011;26912;54.292;18.574;2022-10-30T00:30:59;0.40;;;0.40;;
41177;SDS011;26912;54.292;18.574;2022-10-30T00:33:27;1.17;;;0.65;;
41177;SDS011;26912;54.292;18.574;2022-10-30T00:35:54;0.20;;;0.20;;
41177;SDS011;26912;54.292;18.574;2022-10-30T00:38:20;5.47;;;0.70;;
41177;SDS011;26912;54.292;18.574;2022-10-30T00:40:47;1.23;;;0.70;;
41177;SDS011;26912;54.292;18.574;2022-10-30T00:46:01;0.90;;;0.57;;
41177;SDS011;26912;54.292;18.574;2022-10-30T00:48:32;0.10;;;0.10;;
41177;SDS011;26912;54.292;18.574;2022-10-30T00:50:59;0.13;;;0.13;;
41177;SDS011;26912;54.292;18.574;2022-10-30T00:53:27;2.45;;;0.65;;
41177;SDS011;26912;54.292;18.574;2022-10-30T00:55:56;0.43;;;0.40;;
41177;SDS011;26912;54.292;18.574;2022-10-30T00:58:28;0.82;;;0.50;;
41177;SDS011;26912;54.292;18.574;2022-10-30T01:01:03;1.13;;;1.02;;
41177;SDS011;26912;54.292;18.574;2022-10-30T01:03:35;0.38;;;0.38;;
41177;SDS011;26912;54.292;18.574;2022-10-30T01:06:05;1.67;;;0.63;;
41177;SDS011;26912;54.292;18.574;2022-10-30T01:08:35;0.47;;;0.35;;
41177;SDS011;26912;54.292;18.574;2022-10-30T01:11:03;0.20;;;0.10;;
41177;SDS011;26912;54.292;18.574;2022-10-30T01:13:31;0.10;;;0.10;;
41177;SDS011;26912;54.292;18.574;2022-10-30T01:19:05;0.38;;;0.38;;
41177;SDS011;26912;54.292;18.574;2022-10-30T01:24:18;0.40;;;0.40;;
41177;SDS011;26912;54.292;18.574;2022-10-30T01:35:40;1.60;;;0.40;;
41177;SDS011;26912;54.292;18.574;2022-10-30T01:38:20;0.32;;;0.30;;
41177;SDS011;26912;54.292;18.574;2022-10-30T01:40:52;1.00;;;0.40;;
41177;SDS011;26912;54.292;18.574;2022-10-30T01:43:19;2.78;;;1.08;;
41177;SDS011;26912;54.292;18.574;2022-10-30T01:46:08;5.15;;;0.98;;
41177;SDS011;26912;54.292;18.574;2022-10-30T01:59:14;5.68;;;0.75;;
41177;SDS011;26912;54.292;18.574;2022-10-30T02:01:45;1.65;;;0.20;;
41177;SDS011;26912;54.292;18.574;2022-10-30T02:04:13;8.65;;;0.98;;
41177;SDS011;26912;54.292;18.574;2022-10-30T02:06:40;1.35;;;0.28;;
41177;SDS011;26912;54.292;18.574;2022-10-30T02:09:08;0.85;;;0.50;;
41177;SDS011;26912;54.292;18.574;2022-10-30T02:11:40;0.47;;;0.38;;
41177;SDS011;26912;54.292;18.574;2022-10-30T02:14:08;0.68;;;0.60;;
41177;SDS011;26912;54.292;18.574;2022-10-30T02:16:37;1.45;;;1.00;;
41177;SDS011;26912;54.292;18.574;2022-10-30T02:19:07;3.83;;;0.80;;
41177;SDS011;26912;54.292;18.574;2022-10-30T02:21:33;0.30;;;0.30;;
41177;SDS011;26912;54.292;18.574;2022-10-30T02:24:00;0.65;;;0.30;;
41177;SDS011;26912;54.292;18.574;2022-10-30T02:26:27;0.10;;;0.10;;
41177;SDS011;26912;54.292;18.574;2022-10-30T02:28:53;1.88;;;1.23;;
41177;SDS011;26912;54.292;18.574;2022-10-30T02:31:19;1.00;;;0.80;;
41177;SDS011;26912;54.292;18.574;2022-10-30T02:33:46;7.97;;;1.00;;
41177;SDS011;26912;54.292;18.574;2022-10-30T02:36:13;3.05;;;1.23;;
41177;SDS011;26912;54.292;18.574;2022-10-30T02:38:40;0.32;;;0.32;;
41177;SDS011;26912;54.292;18.574;2022-10-30T02:41:08;0.55;;;0.55;;
41177;SDS011;26912;54.292;18.574;2022-10-30T02:43:37;2.80;;;0.60;;
41177;SDS011;26912;54.292;18.574;2022-10-30T02:46:04;0.45;;;0.45;;
41177;SDS011;26912;54.292;18.574;2022-10-30T02:48:32;0.45;;;0.40;;
41177;SDS011;26912;54.292;18.574;2022-10-30T02:50:59;0.52;;;0.52;;
41177;SDS011;26912;54.292;18.574;2022-10-30T02:53:27;0.20;;;0.20;;
41177;SDS011;26912;54.292;18.574;2022-10-30T02:55:55;0.68;;;0.52;;
41177;SDS011;26912;54.292;18.574;2022-10-30T03:00:53;0.20;;;0.20;;
41177;SDS011;26912;54.292;18.574;2022-10-30T03:03:20;1.10;;;1.00;;
41177;SDS011;26912;54.292;18.574;2022-10-30T03:05:46;0.43;;;0.40;;
41177;SDS011;26912;54.292;18.574;2022-10-30T03:08:14;4.38;;;0.60;;
41177;SDS011;26912;54.292;18.574;2022-10-30T03:10:41;1.20;;;0.90;;
41177;SDS011;26912;54.292;18.574;2022-10-30T03:13:07;2.78;;;0.80;;
41177;SDS011;26912;54.292;18.574;2022-10-30T03:15:35;0.75;;;0.57;;
41177;SDS011;26912;54.292;18.574;2022-10-30T03:18:01;0.03;;;0.03;;
41177;SDS011;26912;54.292;18.574;2022-10-30T03:20:28;0.25;;;0.25;;
41177;SDS011;26912;54.292;18.574;2022-10-30T03:22:54;0.22;;;0.22;;
41177;SDS011;26912;54.292;18.574;2022-10-30T03:25:22;1.33;;;0.98;;
41177;SDS011;26912;54.292;18.574;2022-10-30T03:27:52;6.85;;;0.40;;
41177;SDS011;26912;54.292;18.574;2022-10-30T03:30:19;0.95;;;0.40;;
41177;SDS011;26912;54.292;18.574;2022-10-30T03:32:46;0.95;;;0.73;;
41177;SDS011;26912;54.292;18.574;2022-10-30T03:35:13;0.45;;;0.13;;
41177;SDS011;26912;54.292;18.574;2022-10-30T03:37:39;1.00;;;0.65;;
41177;SDS011;26912;54.292;18.574;2022-10-30T03:40:07;6.07;;;0.63;;
41177;SDS011;26912;54.292;18.574;2022-10-30T03:42:38;1.00;;;0.45;;
41177;SDS011;26912;54.292;18.574;2022-10-30T03:45:05;0.30;;;0.20;;
41177;SDS011;26912;54.292;18.574;2022-10-30T03:47:32;0.30;;;0.30;;
41177;SDS011;26912;54.292;18.574;2022-10-30T03:49:59;7.97;;;0.95;;
41177;SDS011;26912;54.292;18.574;2022-10-30T03:52:26;1.48;;;1.20;;
41177;SDS011;26912;54.292;18.574;2022-10-30T03:54:53;0.75;;;0.50;;
41177;SDS011;26912;54.292;18.574;2022-10-30T03:57:20;0.90;;;0.55;;
41177;SDS011;26912;54.292;18.574;2022-10-30T04:00:09;4.05;;;0.93;;
41177;SDS011;26912;54.292;18.574;2022-10-30T04:05:13;2.75;;;1.23;;
41177;SDS011;26912;54.292;18.574;2022-10-30T04:07:41;3.60;;;1.02;;
41177;SDS011;26912;54.292;18.574;2022-10-30T04:10:10;0.40;;;0.40;;
41177;SDS011;26912;54.292;18.574;2022-10-30T04:12:37;0.50;;;0.50;;
41177;SDS011;26912;54.292;18.574;2022-10-30T04:15:04;2.40;;;0.50;;
41177;SDS011;26912;54.292;18.574;2022-10-30T04:17:32;1.17;;;0.82;;
41177;SDS011;26912;54.292;18.574;2022-10-30T04:20:03;0.73;;;0.43;;
41177;SDS011;26912;54.292;18.574;2022-10-30T04:22:30;5.25;;;2.15;;
41177;SDS011;26912;54.292;18.574;2022-10-30T04:24:57;6.68;;;0.93;;
41177;SDS011;26912;54.292;18.574;2022-10-30T04:27:24;0.80;;;0.65;;
41177;SDS011;26912;54.292;18.574;2022-10-30T04:29:51;3.20;;;1.20;;
41177;SDS011;26912;54.292;18.574;2022-10-30T04:32:17;1.55;;;0.75;;
41177;SDS011;26912;54.292;18.574;2022-10-30T04:34:45;3.33;;;0.45;;
41177;SDS011;26912;54.292;18.574;2022-10-30T04:37:12;0.30;;;0.30;;
41177;SDS011;26912;54.292;18.574;2022-10-30T04:39:38;0.80;;;0.80;;
41177;SDS011;26912;54.292;18.574;2022-10-30T04:42:13;0.17;;;0.17;;
41177;SDS011;26912;54.292;18.574;2022-10-30T04:44:41;0.85;;;0.65;;
41177;SDS011;26912;54.292;18.574;2022-10-30T04:47:08;0.98;;;0.68;;
41177;SDS011;26912;54.292;18.574;2022-10-30T04:49:35;1.23;;;1.13;;
41177;SDS011;26912;54.292;18.574;2022-10-30T04:52:01;2.25;;;0.52;;
41177;SDS011;26912;54.292;18.574;2022-10-30T04:54:27;0.35;;;0.35;;
41177;SDS011;26912;54.292;18.574;2022-10-30T04:56:54;0.40;;;0.40;;
41177;SDS011;26912;54.292;18.574;2022-10-30T04:59:21;0.40;;;0.40;;
41177;SDS011;26912;54.292;18.574;2022-10-30T05:01:50;0.20;;;0.15;;
41177;SDS011;26912;54.292;18.574;2022-10-30T05:04:16;1.13;;;0.70;;
41177;SDS011;26912;54.292;18.574;2022-10-30T05:06:43;1.50;;;0.98;;
41177;SDS011;26912;54.292;18.574;2022-10-30T05:09:12;0.50;;;0.43;;
41177;SDS011;26912;54.292;18.574;2022-10-30T05:11:39;1.13;;;0.70;;
41177;SDS011;26912;54.292;18.574;2022-10-30T05:14:06;1.00;;;0.73;;
41177;SDS011;26912;54.292;18.574;2022-10-30T05:16:33;2.22;;;1.13;;
41177;SDS011;26912;54.292;18.574;2022-10-30T05:19:02;8.60;;;1.55;;
41177;SDS011;26912;54.292;18.574;2022-10-30T05:21:29;0.35;;;0.32;;
41177;SDS011;26912;54.292;18.574;2022-10-30T05:23:57;0.60;;;0.40;;
41177;SDS011;26912;54.292;18.574;2022-10-30T05:26:24;1.23;;;0.93;;
41177;SDS011;26912;54.292;18.574;2022-10-30T05:28:51;10.65;;;1.25;;
41177;SDS011;26912;54.292;18.574;2022-10-30T05:31:18;0.75;;;0.45;;
41177;SDS011;26912;54.292;18.574;2022-10-30T05:36:16;0.47;;;0.30;;
41177;SDS011;26912;54.292;18.574;2022-10-30T05:38:43;4.65;;;0.57;;
41177;SDS011;26912;54.292;18.574;2022-10-30T05:41:19;1.25;;;1.15;;
41177;SDS011;26912;54.292;18.574;2022-10-30T05:43:46;3.30;;;1.23;;
41177;SDS011;26912;54.292;18.574;2022-10-30T05:46:13;0.20;;;0.20;;
41177;SDS011;26912;54.292;18.574;2022-10-30T05:48:39;4.47;;;0.77;;
41177;SDS011;26912;54.292;18.574;2022-10-30T05:51:06;1.30;;;0.60;;
41177;SDS011;26912;54.292;18.574;2022-10-30T05:53:34;2.78;;;0.60;;
41177;SDS011;26912;54.292;18.574;2022-10-30T05:56:01;0.95;;;0.75;;
41177;SDS011;26912;54.292;18.574;2022-10-30T05:58:31;2.20;;;1.58;;
41177;SDS011;26912;54.292;18.574;2022-10-30T06:01:03;1.27;;;0.98;;
41177;SDS011;26912;54.292;18.574;2022-10-30T06:06:10;10.73;;;1.05;;
41177;SDS011;26912;54.292;18.574;2022-10-30T06:08:37;3.05;;;0.80;;
41177;SDS011;26912;54.292;18.574;2022-10-30T06:11:19;0.20;;;0.20;;
41177;SDS011;26912;54.292;18.574;2022-10-30T06:13:51;1.05;;;0.98;;
41177;SDS011;26912;54.292;18.574;2022-10-30T06:16:22;2.65;;;0.75;;
41177;SDS011;26912;54.292;18.574;2022-10-30T06:19:08;2.05;;;0.60;;
41177;SDS011;26912;54.292;18.574;2022-10-30T06:21:34;1.75;;;0.60;;
41177;SDS011;26912;54.292;18.574;2022-10-30T06:24:12;0.80;;;0.60;;
41177;SDS011;26912;54.292;18.574;2022-10-30T06:27:03;6.32;;;1.27;;
41177;SDS011;26912;54.292;18.574;2022-10-30T06:29:29;4.60;;;1.05;;
41177;SDS011;26912;54.292;18.574;2022-10-30T06:31:55;2.95;;;1.42;;
41177;SDS011;26912;54.292;18.574;2022-10-30T06:34:22;2.78;;;0.93;;
41177;SDS011;26912;54.292;18.574;2022-10-30T06:36:51;1.02;;;0.65;;
41177;SDS011;26912;54.292;18.574;2022-10-30T06:39:17;2.70;;;0.73;;
41177;SDS011;26912;54.292;18.574;2022-10-30T06:42:04;2.30;;;0.80;;
41177;SDS011;26912;54.292;18.574;2022-10-30T06:44:50;4.55;;;0.93;;
41177;SDS011;26912;54.292;18.574;2022-10-30T06:47:17;1.58;;;1.33;;
41177;SDS011;26912;54.292;18.574;2022-10-30T06:49:43;5.40;;;1.10;;
41177;SDS011;26912;54.292;18.574;2022-10-30T06:52:10;6.68;;;1.10;;
41177;SDS011;26912;54.292;18.574;2022-10-30T06:54:36;3.60;;;0.40;;
41177;SDS011;26912;54.292;18.574;2022-10-30T06:57:29;0.75;;;0.60;;
41177;SDS011;26912;54.292;18.574;2022-10-30T07:00:09;2.80;;;1.38;;
41177;SDS011;26912;54.292;18.574;2022-10-30T07:02:56;3.25;;;0.93;;
41177;SDS011;26912;54.292;18.574;2022-10-30T07:05:24;2.92;;;1.50;;
41177;SDS011;26912;54.292;18.574;2022-10-30T07:07:51;3.97;;;1.38;;
41177;SDS011;26912;54.292;18.574;2022-10-30T07:10:21;1.33;;;1.23;;
41177;SDS011;26912;54.292;18.574;2022-10-30T07:13:15;0.95;;;0.60;;
41177;SDS011;26912;54.292;18.574;2022-10-30T07:15:51;5.25;;;1.27;;
41177;SDS011;26912;54.292;18.574;2022-10-30T07:18:23;1.45;;;0.80;;
41177;SDS011;26912;54.292;18.574;2022-10-30T07:20:54;5.05;;;1.35;;
41177;SDS011;26912;54.292;18.574;2022-10-30T07:23:22;2.38;;;1.20;;
41177;SDS011;26912;54.292;18.574;2022-10-30T07:25:50;1.50;;;1.20;;
41177;SDS011;26912;54.292;18.574;2022-10-30T07:28:22;1.77;;;1.05;;
41177;SDS011;26912;54.292;18.574;2022-10-30T07:31:09;1.10;;;0.77;;
41177;SDS011;26912;54.292;18.574;2022-10-30T07:33:44;1.42;;;1.00;;
41177;SDS011;26912;54.292;18.574;2022-10-30T07:36:27;4.68;;;0.75;;
41177;SDS011;26912;54.292;18.574;2022-10-30T07:39:11;3.38;;;0.80;;
41177;SDS011;26912;54.292;18.574;2022-10-30T07:41:55;3.60;;;1.35;;
41177;SDS011;26912;54.292;18.574;2022-10-30T07:44:45;2.45;;;1.35;;
41177;SDS011;26912;54.292;18.574;2022-10-30T07:47:24;2.00;;;1.05;;
41177;SDS011;26912;54.292;18.574;2022-10-30T07:50:00;0.75;;;0.75;;
41177;SDS011;26912;54.292;18.574;2022-10-30T07:52:32;0.75;;;0.63;;
41177;SDS011;26912;54.292;18.574;2022-10-30T07:54:59;1.65;;;1.00;;
41177;SDS011;26912;54.292;18.574;2022-10-30T07:57:48;3.00;;;1.35;;
41177;SDS011;26912;54.292;18.574;2022-10-30T08:00:33;2.13;;;1.25;;
41177;SDS011;26912;54.292;18.574;2022-10-30T08:03:19;2.83;;;1.42;;
41177;SDS011;26912;54.292;18.574;2022-10-30T08:05:52;1.85;;;1.13;;
41177;SDS011;26912;54.292;18.574;2022-10-30T08:08:31;1.20;;;1.00;;
41177;SDS011;26912;54.292;18.574;2022-10-30T08:11:18;5.03;;;0.95;;
41177;SDS011;26912;54.292;18.574;2022-10-30T08:13:45;1.73;;;1.23;;
41177;SDS011;26912;54.292;18.574;2022-10-30T08:16:11;1.73;;;1.42;;
41177;SDS011;26912;54.292;18.574;2022-10-30T08:18:38;2.67;;;0.95;;
41177;SDS011;26912;54.292;18.574;2022-10-30T08:21:07;0.77;;;0.75;;
41177;SDS011;26912;54.292;18.574;2022-10-30T08:23:35;0.20;;;0.20;;
41177;SDS011;26912;54.292;18.574;2022-10-30T08:26:07;5.43;;;1.08;;
41177;SDS011;26912;54.292;18.574;2022-10-30T08:28:35;1.20;;;0.90;;
41177;SDS011;26912;54.292;18.574;2022-10-30T08:31:04;2.13;;;1.35;;
41177;SDS011;26912;54.292;18.574;2022-10-30T08:33:49;0.57;;;0.47;;
41177;SDS011;26912;54.292;18.574;2022-10-30T08:36:26;1.25;;;1.15;;
41177;SDS011;26912;54.292;18.574;2022-10-30T08:38:53;1.08;;;0.82;;
41177;SDS011;26912;54.292;18.574;2022-10-30T08:41:37;2.10;;;0.80;;
41177;SDS011;26912;54.292;18.574;2022-10-30T08:44:04;3.20;;;0.90;;
41177;SDS011;26912;54.292;18.574;2022-10-30T08:46:49;4.03;;;1.02;;
41177;SDS011;26912;54.292;18.574;2022-10-30T08:49:17;6.95;;;1.27;;
41177;SDS011;26912;54.292;18.574;2022-10-30T08:51:50;7.15;;;1.58;;
41177;SDS011;26912;54.292;18.574;2022-10-30T08:54:17;1.88;;;1.02;;
41177;SDS011;26912;54.292;18.574;2022-10-30T08:56:44;1.55;;;1.42;;
41177;SDS011;26912;54.292;18.574;2022-10-30T08:59:12;1.13;;;0.63;;
41177;SDS011;26912;54.292;18.574;2022-10-30T09:01:38;3.50;;;1.05;;
41177;SDS011;26912;54.292;18.574;2022-10-30T09:04:20;1.75;;;0.75;;
41177;SDS011;26912;54.292;18.574;2022-10-30T09:07:25;1.80;;;0.77;;
41177;SDS011;26912;54.292;18.574;2022-10-30T09:10:16;4.93;;;0.73;;
41177;SDS011;26912;54.292;18.574;2022-10-30T09:12:43;3.85;;;0.63;;
41177;SDS011;26912;54.292;18.574;2022-10-30T09:15:09;0.60;;;0.60;;
41177;SDS011;26912;54.292;18.574;2022-10-30T09:17:53;0.45;;;0.45;;
41177;SDS011;26912;54.292;18.574;2022-10-30T09:20:23;1.52;;;0.70;;
41177;SDS011;26912;54.292;18.574;2022-10-30T09:22:51;2.47;;;0.95;;
41177;SDS011;26912;54.292;18.574;2022-10-30T09:25:18;1.20;;;0.85;;
41177;SDS011;26912;54.292;18.574;2022-10-30T09:27:48;0.88;;;0.88;;
41177;SDS011;26912;54.292;18.574;2022-10-30T09:30:16;1.45;;;0.98;;
41177;SDS011;26912;54.292;18.574;2022-10-30T09:32:56;1.67;;;0.90;;
41177;SDS011;26912;54.292;18.574;2022-10-30T09:35:43;1.02;;;0.52;;
41177;SDS011;26912;54.292;18.574;2022-10-30T09:38:09;2.38;;;1.05;;
41177;SDS011;26912;54.292;18.574;2022-10-30T09:43:51;1.23;;;0.70;;
41177;SDS011;26912;54.292;18.574;2022-10-30T09:52:30;1.20;;;0.88;;
41177;SDS011;26912;54.292;18.574;2022-10-30T10:00:24;4.47;;;2.15;;
41177;SDS011;26912;54.292;18.574;2022-10-30T10:06:03;1.65;;;1.08;;
41177;SDS011;26912;54.292;18.574;2022-10-30T10:09:07;1.15;;;0.90;;
41177;SDS011;26912;54.292;18.574;2022-10-30T10:12:06;1.90;;;0.95;;
41177;SDS011;26912;54.292;18.574;2022-10-30T10:14:44;1.45;;;0.90;;
41177;SDS011;26912;54.292;18.574;2022-10-30T10:17:14;2.55;;;1.35;;
41177;SDS011;26912;54.292;18.574;2022-10-30T10:22:19;6.18;;;0.95;;
41177;SDS011;26912;54.292;18.574;2022-10-30T10:24:55;0.38;;;0.17;;
41177;SDS011;26912;54.292;18.574;2022-10-30T10:27:26;2.85;;;1.15;;
41177;SDS011;26912;54.292;18.574;2022-10-30T10:44:14;9.43;;;1.23;;
41177;SDS011;26912;54.292;18.574;2022-10-30T10:49:32;2.83;;;0.80;;
41177;SDS011;26912;54.292;18.574;2022-10-30T10:52:15;1.00;;;0.90;;
41177;SDS011;26912;54.292;18.574;2022-10-30T10:54:47;1.75;;;0.85;;
41177;SDS011;26912;54.292;18.574;2022-10-30T10:57:25;0.80;;;0.80;;
41177;SDS011;26912;54.292;18.574;2022-10-30T11:00:05;0.77;;;0.77;;
41177;SDS011;26912;54.292;18.574;2022-10-30T11:05:06;1.25;;;0.90;;
41177;SDS011;26912;54.292;18.574;2022-10-30T11:07:36;1.73;;;0.98;;
41177;SDS011;26912;54.292;18.574;2022-10-30T11:10:12;0.93;;;0.55;;
41177;SDS011;26912;54.292;18.574;2022-10-30T11:12:40;2.95;;;0.70;;
41177;SDS011;26912;54.292;18.574;2022-10-30T11:18:15;1.38;;;1.15;;
41177;SDS011;26912;54.292;18.574;2022-10-30T11:20:43;1.67;;;0.88;;
41177;SDS011;26912;54.292;18.574;2022-10-30T11:36:44;0.88;;;0.40;;
41177;SDS011;26912;54.292;18.574;2022-10-30T11:39:19;1.10;;;0.82;;
41177;SDS011;26912;54.292;18.574;2022-10-30T11:42:33;1.13;;;0.77;;
41177;SDS011;26912;54.292;18.574;2022-10-30T11:44:47;2.15;;;1.02;;
41177;SDS011;26912;54.292;18.574;2022-10-30T11:47:16;0.95;;;0.95;;
41177;SDS011;26912;54.292;18.574;2022-10-30T11:50:13;2.83;;;2.38;;
41177;SDS011;26912;54.292;18.574;2022-10-30T11:52:39;1.00;;;0.90;;
41177;SDS011;26912;54.292;18.574;2022-10-30T11:55:14;2.05;;;1.30;;
41177;SDS011;26912;54.292;18.574;2022-10-30T11:57:42;1.40;;;0.70;;
41177;SDS011;26912;54.292;18.574;2022-10-30T12:00:21;0.70;;;0.60;;
41177;SDS011;26912;54.292;18.574;2022-10-30T12:02:58;1.33;;;0.98;;
41177;SDS011;26912;54.292;18.574;2022-10-30T12:10:43;0.77;;;0.65;;
41177;SDS011;26912;54.292;18.574;2022-10-30T12:13:13;9.85;;;1.23;;
41177;SDS011;26912;54.292;18.574;2022-10-30T12:15:42;8.27;;;0.90;;
41177;SDS011;26912;54.292;18.574;2022-10-30T12:18:29;2.75;;;1.13;;
41177;SDS011;26912;54.292;18.574;2022-10-30T12:20:57;1.15;;;0.60;;
41177;SDS011;26912;54.292;18.574;2022-10-30T12:23:25;1.20;;;0.93;;
41177;SDS011;26912;54.292;18.574;2022-10-30T12:25:56;8.82;;;1.10;;
41177;SDS011;26912;54.292;18.574;2022-10-30T12:28:33;0.73;;;0.70;;
41177;SDS011;26912;54.292;18.574;2022-10-30T12:31:11;0.98;;;0.85;;
41177;SDS011;26912;54.292;18.574;2022-10-30T12:33:51;1.25;;;0.82;;
41177;SDS011;26912;54.292;18.574;2022-10-30T12:36:47;2.55;;;1.23;;
41177;SDS011;26912;54.292;18.574;2022-10-30T12:39:43;1.08;;;0.85;;
41177;SDS011;26912;54.292;18.574;2022-10-30T12:42:14;1.75;;;0.80;;
41177;SDS011;26912;54.292;18.574;2022-10-30T12:53:05;1.25;;;0.80;;
41177;SDS011;26912;54.292;18.574;2022-10-30T12:55:46;9.13;;;1.05;;
41177;SDS011;26912;54.292;18.574;2022-10-30T13:04:14;0.90;;;0.85;;
41177;SDS011;26912;54.292;18.574;2022-10-30T13:09:47;3.78;;;1.10;;
41177;SDS011;26912;54.292;18.574;2022-10-30T13:12:24;2.30;;;0.82;;
41177;SDS011;26912;54.292;18.574;2022-10-30T13:14:57;1.95;;;1.13;;
41177;SDS011;26912;54.292;18.574;2022-10-30T13:17:29;1.83;;;1.60;;
41177;SDS011;26912;54.292;18.574;2022-10-30T13:19:56;11.18;;;3.55;;
41177;SDS011;26912;54.292;18.574;2022-10-30T13:28:31;3.70;;;1.80;;
41177;SDS011;26912;54.292;18.574;2022-10-30T13:30:39;4.70;;;2.42;;
41177;SDS011;26912;54.292;18.574;2022-10-30T13:33:21;4.13;;;1.88;;
41177;SDS011;26912;54.292;18.574;2022-10-30T13:41:22;4.07;;;0.90;;
41177;SDS011;26912;54.292;18.574;2022-10-30T13:52:31;2.65;;;1.42;;
41177;SDS011;26912;54.292;18.574;2022-10-30T14:02:40;6.40;;;2.88;;
41177;SDS011;26912;54.292;18.574;2022-10-30T14:05:28;4.38;;;2.35;;
41177;SDS011;26912;54.292;18.574;2022-10-30T14:08:15;5.30;;;1.88;;
41177;SDS011;26912;54.292;18.574;2022-10-30T14:11:04;2.53;;;1.30;;
41177;SDS011;26912;54.292;18.574;2022-10-30T14:16:04;1.15;;;0.98;;
41177;SDS011;26912;54.292;18.574;2022-10-30T14:18:45;3.03;;;1.48;;
41177;SDS011;26912;54.292;18.574;2022-10-30T14:27:26;4.90;;;2.08;;
41177;SDS011;26912;54.292;18.574;2022-10-30T14:29:52;6.35;;;2.10;;
41177;SDS011;26912;54.292;18.574;2022-10-30T14:53:04;3.83;;;2.78;;
41177;SDS011;26912;54.292;18.574;2022-10-30T14:56:54;10.00;;;3.47;;
41177;SDS011;26912;54.292;18.574;2022-10-30T15:18:30;8.50;;;2.85;;
41177;SDS011;26912;54.292;18.574;2022-10-30T15:21:00;15.20;;;4.72;;
41177;SDS011;26912;54.292;18.574;2022-10-30T15:23:31;7.85;;;4.78;;
41177;SDS011;26912;54.292;18.574;2022-10-30T15:26:04;16.52;;;3.63;;
41177;SDS011;26912;54.292;18.574;2022-10-30T15:28:33;13.05;;;4.38;;
41177;SDS011;26912;54.292;18.574;2022-10-30T15:33:43;9.65;;;4.65;;
41177;SDS011;26912;54.292;18.574;2022-10-30T15:36:55;18.33;;;4.97;;
41177;SDS011;26912;54.292;18.574;2022-10-30T15:39:12;8.18;;;3.13;;
41177;SDS011;26912;54.292;18.574;2022-10-30T15:41:43;19.95;;;5.68;;
41177;SDS011;26912;54.292;18.574;2022-10-30T15:44:24;9.10;;;4.50;;
41177;SDS011;26912;54.292;18.574;2022-10-30T15:46:55;8.05;;;3.58;;
41177;SDS011;26912;54.292;18.574;2022-10-30T15:49:28;7.40;;;4.72;;
41177;SDS011;26912;54.292;18.574;2022-10-30T15:51:56;8.02;;;4.28;;
41177;SDS011;26912;54.292;18.574;2022-10-30T15:54:24;6.55;;;3.67;;
41177;SDS011;26912;54.292;18.574;2022-10-30T15:56:54;118.05;;;40.85;;
41177;SDS011;26912;54.292;18.574;2022-10-30T15:59:24;67.22;;;21.77;;
41177;SDS011;26912;54.292;18.574;2022-10-30T16:01:57;33.33;;;12.82;;
41177;SDS011;26912;54.292;18.574;2022-10-30T16:04:25;40.45;;;17.33;;
41177;SDS011;26912;54.292;18.574;2022-10-30T16:06:58;40.60;;;15.68;;
41177;SDS011;26912;54.292;18.574;2022-10-30T16:09:27;24.08;;;14.68;;
41177;SDS011;26912;54.292;18.574;2022-10-30T16:11:55;30.70;;;15.35;;
41177;SDS011;26912;54.292;18.574;2022-10-30T16:14:24;23.33;;;13.13;;
41177;SDS011;26912;54.292;18.574;2022-10-30T16:16:54;26.20;;;12.00;;
41177;SDS011;26912;54.292;18.574;2022-10-30T16:19:37;26.42;;;11.70;;
41177;SDS011;26912;54.292;18.574;2022-10-30T16:22:10;27.73;;;11.02;;
41177;SDS011;26912;54.292;18.574;2022-10-30T16:27:14;17.13;;;7.15;;
41177;SDS011;26912;54.292;18.574;2022-10-30T16:29:44;22.27;;;10.20;;
41177;SDS011;26912;54.292;18.574;2022-10-30T16:32:12;18.17;;;8.90;;
41177;SDS011;26912;54.292;18.574;2022-10-30T16:34:41;11.82;;;7.97;;
41177;SDS011;26912;54.292;18.574;2022-10-30T16:37:12;21.08;;;8.05;;
41177;SDS011;26912;54.292;18.574;2022-10-30T16:39:43;11.70;;;7.15;;
41177;SDS011;26912;54.292;18.574;2022-10-30T16:42:20;18.98;;;8.50;;
41177;SDS011;26912;54.292;18.574;2022-10-30T16:47:46;8.60;;;4.55;;
41177;SDS011;26912;54.292;18.574;2022-10-30T16:50:24;11.00;;;6.07;;
41177;SDS011;26912;54.292;18.574;2022-10-30T16:53:04;12.38;;;5.22;;
41177;SDS011;26912;54.292;18.574;2022-10-30T16:55:43;8.95;;;5.40;;
41177;SDS011;26912;54.292;18.574;2022-10-30T16:58:11;10.10;;;6.13;;
41177;SDS011;26912;54.292;18.574;2022-10-30T17:00:50;15.38;;;7.15;;
41177;SDS011;26912;54.292;18.574;2022-10-30T17:03:19;11.65;;;5.82;;
41177;SDS011;26912;54.292;18.574;2022-10-30T17:05:59;12.27;;;5.70;;
41177;SDS011;26912;54.292;18.574;2022-10-30T17:08:30;8.52;;;4.55;;
41177;SDS011;26912;54.292;18.574;2022-10-30T17:11:06;11.95;;;5.18;;
41177;SDS011;26912;54.292;18.574;2022-10-30T17:16:33;10.00;;;6.38;;
41177;SDS011;26912;54.292;18.574;2022-10-30T17:22:00;12.63;;;6.97;;
41177;SDS011;26912;54.292;18.574;2022-10-30T17:24:30;11.07;;;6.85;;
41177;SDS011;26912;54.292;18.574;2022-10-30T17:26:59;16.95;;;7.68;;
41177;SDS011;26912;54.292;18.574;2022-10-30T17:29:45;6.68;;;4.10;;
41177;SDS011;26912;54.292;18.574;2022-10-30T17:32:28;9.30;;;5.38;;
41177;SDS011;26912;54.292;18.574;2022-10-30T17:35:14;13.27;;;6.70;;
41177;SDS011;26912;54.292;18.574;2022-10-30T17:37:43;14.07;;;7.45;;
41177;SDS011;26912;54.292;18.574;2022-10-30T17:40:10;17.90;;;7.03;;
41177;SDS011;26912;54.292;18.574;2022-10-30T17:42:38;12.70;;;6.85;;
41177;SDS011;26912;54.292;18.574;2022-10-30T17:45:05;14.57;;;5.95;;
41177;SDS011;26912;54.292;18.574;2022-10-30T17:47:36;10.75;;;5.32;;
41177;SDS011;26912;54.292;18.574;2022-10-30T17:50:03;9.30;;;3.08;;
41177;SDS011;26912;54.292;18.574;2022-10-30T17:52:31;5.40;;;3.25;;
41177;SDS011;26912;54.292;18.574;2022-10-30T17:54:59;8.63;;;5.00;;
41177;SDS011;26912;54.292;18.574;2022-10-30T17:57:26;6.50;;;3.60;;
41177;SDS011;26912;54.292;18.574;2022-10-30T17:59:53;5.15;;;3.10;;
41177;SDS011;26912;54.292;18.574;2022-10-30T18:02:20;7.45;;;4.25;;
41177;SDS011;26912;54.292;18.574;2022-10-30T18:04:48;5.45;;;3.25;;
41177;SDS011;26912;54.292;18.574;2022-10-30T18:07:16;9.50;;;3.58;;
41177;SDS011;26912;54.292;18.574;2022-10-30T18:09:42;7.85;;;3.35;;
41177;SDS011;26912;54.292;18.574;2022-10-30T18:12:11;15.43;;;4.55;;
41177;SDS011;26912;54.292;18.574;2022-10-30T18:14:41;8.30;;;5.20;;
41177;SDS011;26912;54.292;18.574;2022-10-30T18:17:10;10.70;;;4.20;;
41177;SDS011;26912;54.292;18.574;2022-10-30T18:19:37;7.97;;;4.93;;
41177;SDS011;26912;54.292;18.574;2022-10-30T18:22:05;11.20;;;6.55;;
41177;SDS011;26912;54.292;18.574;2022-10-30T18:24:31;11.93;;;4.65;;
41177;SDS011;26912;54.292;18.574;2022-10-30T18:26:58;7.97;;;5.20;;
41177;SDS011;26912;54.292;18.574;2022-10-30T18:29:25;7.75;;;4.93;;